ESOK/KSD METAR and TAF weather

Enter ICAO airport designator
Station Type Date Time Source
ESOK METAR 2018/12/10 19:20 UTC NOAA

ESOK 101920Z 34014KT 9999 FEW017 SCT020 BKN043 02/00 Q1004


Station Type Date Time Source
ESOK Decoded METAR 2018/12/10 19:20 UTC NOAA

Karlstad , Sweden (ESOK) 59-26-41N 013-20-15E
Dec 10, 2018 - 02:20 PM EST / 2018.12.10 1920 UTC
Wind: from the NNW (340 degrees) at 16 MPH (14 KT):0
Visibility: greater than 7 mile(s):0
Sky conditions: mostly cloudy
Temperature: 35 F (2 C)
Windchill: 24 F (-4 C):1
Dew Point: 32 F (0 C)
Relative Humidity: 86%
Pressure (altimeter): 29.65 in. Hg (1004 hPa)
ob: ESOK 101920Z 34014KT 9999 FEW017 SCT020 BKN043 02/00 Q1004
cycle: 19

Station Type Date Time Source
ESOK TAF 2017/05/22 06:33 UTC NOAA

TAF ESOK 220530Z 2206/2224 28006KT CAVOK


Example: see airport list